Impacts METAR Board
IDs:

KLAS - Las Vegas/McCarran I, NV, US

Updated at: 0000 UTC 19 Dec 2018
Potential Impact None Slight Moderate High
Time 18/12Z 18/13Z 18/14Z 18/15Z 18/16Z 18/17Z 18/18Z 18/19Z 18/20Z 18/21Z 18/22Z 18/23Z 19/00Z
Temp42 42 43 45 47 50 53 56 58 60 60 61 59
Dewpt27 28 28 29 28 28 30 31 28 30 32 31 30
Altim30.16 30.18 30.19 30.20 30.21 30.24 30.24 30.21 30.18 30.15 30.13 30.13 30.14
VIS10 10 10 10 10 10 10 10 10 10 10 10 10
CIG-- -- -- -- 250 250 -- 250 250 250 250 250 250
CoverFEWSCTSCTSCTBKNBKNSCTBKNBKNBKNBKNBKNBKN
FltCatVFRVFRVFRVFRVFRVFRVFRVFRVFRVFRVFRVFRVFR
WX--------------------------
WDir260230190250036070506040705070
WSpd4 3 6 3 0 3 3 4 3 3 4 5 7
WGst-- -- -- -- -- -- -- -- -- -- -- -- --
Raw hourly METARs
KLAS 181156Z 26004KT 10SM FEW250 06/M03 A3016 RMK AO2 SLP212 T00561028 10083 20050 57003
KLAS 181256Z 23003KT 10SM SCT250 06/M02 A3018 RMK AO2 SLP217 T00561022
KLAS 181356Z 19006KT 10SM SCT250 06/M02 A3019 RMK AO2 SLP222 T00611022
KLAS 181456Z 25003KT 10SM SCT250 07/M02 A3020 RMK AO2 SLP225 T00721017 51012
KLAS 181556Z 00000KT 10SM BKN250 08/M02 A3021 RMK AO2 SLP230 T00831022
KLAS 181656Z 36003KT 10SM BKN250 10/M02 A3024 RMK AO2 SLP239 T01001022
KLAS 181756Z 07003KT 10SM SCT250 12/M01 A3024 RMK AO2 SLP240 T01171011 10122 20050 51014
KLAS 181856Z 05004KT 10SM BKN250 13/M01 A3021 RMK AO2 SLP229 T01331006
KLAS 181956Z 06003KT 10SM BKN250 14/M02 A3018 RMK AO2 SLP218 T01441022
KLAS 182056Z 04003KT 10SM BKN250 16/M01 A3015 RMK AO2 SLP207 T01561011 58028
KLAS 182156Z 07004KT 10SM BKN250 16/00 A3013 RMK AO2 SLP201 T01560000
KLAS 182256Z 05005KT 10SM BKN250 16/M01 A3013 RMK AO2 SLP201 T01611006
KLAS 182356Z 07007KT 10SM BKN250 15/M01 A3014 RMK AO2 SLP204 T01501011 10161 20122 55004



Page loaded:  00:20 UTC  |   04:20 PM Pacific  |   05:20 PM Mountain  |   06:20 PM Central  |   07:20 PM Eastern

 

ADVISORIES

FORECASTS

FORECASTS

OBSERVATIONS

USER TOOLS

ABOUT US